Currently 65°F in Riverside (Orangecrest), California, USA
65°F
84°F / 65°F
3 mph S
0.00"
Sunday, September 23, 2018 10:35 PM PDT

Riverside (Orangecrest), California Weather Summary
Last 36 Hours

Temperature Winds Hourly Humidity Dewpoint
Time Report Norm Report Norm Max Gusts Precip. Rpt. Norm Rpt. Norm Pressure
1,3Sun 10:35 PM  65.4°F  66°F  3 mph S  3 mph  9 mph  0.00"  61%  53%  51°F  47°F  29.86"
Sun 10:00 PM  66.1°F  66°F  4 mph S  3 mph  11 mph  0.00"  62%  51%  52°F  47°F  29.86"
Sun 09:00 PM  68.2°F  68°F  5 mph S  3 mph  11 mph  0.00"  60%  48%  53°F  47°F  29.85"
Sun 08:00 PM  71.2°F  70°F  3 mph S  5 mph  13 mph  0.00"  49%  44%  51°F  46°F  29.84"
Sun 07:00 PM  74.4°F  72°F  5 mph S  6 mph  15 mph  0.00"  47%  38%  52°F  44°F  29.81"
Sun 06:00 PM  78.7°F  76°F  6 mph S  8 mph  14 mph  0.00"  39%  32%  51°F  43°F  29.81"
Sun 05:00 PM  82.6°F  78°F  4 mph S  8 mph  15 mph  0.00"  31%  29%  48°F  42°F  29.81"
Sun 04:00 PM  83.4°F  80°F  7 mph S  7 mph  15 mph  0.00"  29%  26%  46°F  41°F  29.82"
Sun 03:00 PM  83.4°F  80°F  8 mph S  6 mph  15 mph  0.00"  31%  24%  49°F  39°F  29.84"
2Sun 02:52 PM  84.3°F  80°F  6 mph S  6 mph  15 mph  ----  31%  24%  50°F  39°F  29.84"
Sun 02:00 PM  83.2°F  79°F  3 mph S  6 mph  12 mph  0.00"  28%  24%  46°F  39°F  29.87"
Sun 01:00 PM  82.3°F  78°F  5 mph S  6 mph  12 mph  0.00"  30%  26%  46°F  39°F  29.89"
Sun 12:00 PM  80.7°F  76°F  5 mph S  4 mph  11 mph  0.00"  31%  30%  46°F  41°F  29.91"
Sun 11:00 AM  80.3°F  75°F  1 mph S  3 mph  8 mph  0.00"  23%  33%  37°F  42°F  29.92"
Sun 10:00 AM  79.4°F  71°F  calm  3 mph  9 mph  0.00"  22%  40%  36°F  45°F  29.93"
Sun 09:00 AM  73.8°F  67°F  5 mph S  2 mph  7 mph  0.00"  28%  52%  38°F  48°F  29.93"
Sun 08:00 AM  70.9°F  62°F  calm  2 mph  5 mph  0.00"  35%  61%  41°F  48°F  29.92"
Sun 07:00 AM  68.7°F  60°F  1 mph S  2 mph  5 mph  0.00"  31%  65%  36°F  47°F  29.91"
Sun 06:00 AM  68.2°F  60°F  calm  2 mph  none  0.00"  33%  64%  37°F  48°F  29.89"
Sun 05:00 AM  68.1°F  61°F  calm  2 mph  none  0.00"  35%  64%  38°F  48°F  29.89"
Sun 04:00 AM  68.4°F  61°F  calm  1 mph  none  0.00"  34%  64%  37°F  48°F  29.89"
Sun 03:00 AM  70.7°F  62°F  calm  2 mph  3 mph  0.00"  24%  62%  31°F  48°F  29.88"
Sun 02:00 AM  70.3°F  62°F  calm  2 mph  3 mph  0.00"  25%  62%  31°F  49°F  29.89"
Sun 01:00 AM  68.8°F  63°F  2 mph S  2 mph  6 mph  0.00"  32%  59%  37°F  48°F  29.90"
Sun 12:00 AM  70.2°F  64°F  4 mph S  2 mph  11 mph  0.00"  27%  59%  34°F  48°F  29.91"
Sat 11:00 PM  71.7°F  64°F  5 mph S  3 mph  8 mph  0.00"  25%  59%  32°F  49°F  29.91"
Sat 10:00 PM  73.2°F  65°F  4 mph S  3 mph  7 mph  0.00"  24%  56%  33°F  48°F  29.91"
Sat 09:00 PM  75.2°F  67°F  3 mph S  3 mph  10 mph  0.00"  29%  52%  40°F  48°F  29.90"
Sat 08:00 PM  77.8°F  69°F  5 mph S  5 mph  11 mph  0.00"  27%  46%  40°F  47°F  29.88"
Sat 07:00 PM  81.2°F  71°F  5 mph S  6 mph  15 mph  0.00"  23%  40%  39°F  45°F  29.86"
Sat 06:00 PM  84.5°F  75°F  8 mph S  7 mph  15 mph  0.00"  23%  34%  41°F  44°F  29.86"
Sat 05:00 PM  87.6°F  77°F  11 mph S  8 mph  18 mph  0.00"  26%  31%  47°F  43°F  29.86"
Sat 04:00 PM  90.7°F  78°F  8 mph S  7 mph  15 mph  0.00"  22%  29%  45°F  42°F  29.86"
Sat 03:00 PM  91.5°F  79°F  7 mph S  6 mph  14 mph  0.00"  17%  27%  39°F  41°F  29.88"
Sat 02:00 PM  90.1°F  78°F  7 mph S  6 mph  14 mph  0.00"  18%  27%  40°F  40°F  29.91"
Sat 01:00 PM  89.3°F  77°F  5 mph S  6 mph  10 mph  0.00"  17%  29%  37°F  41°F  29.94"
Sat 12:00 PM  87.2°F  75°F  6 mph S  4 mph  9 mph  0.00"  21%  33%  41°F  43°F  29.96"
Sat 11:00 AM  85.3°F  73°F  4 mph S  3 mph  7 mph  0.00"  22%  36%  40°F  44°F  29.98"

  1. Current weather data. No green row appears if the current weather data is also the high or low for the current day.
  2. High temperature for the current day.
  3. Low temperature for the current day.

The Riverside (Orangecrest), California weather pages are a service of WeatherCurrents.
Copyright ©Sun Sep 23 22:35:20 PDT 2018  WeatherCurrents. All rights reserved. - Submit questions and comments - Privacy Policy

This page automatically refreshes every 10 minutes.